Time;durP1;ratioP1;P1;durP2;ratioP2;P2;SDS_P1;SDS_P2;PMS_P1;PMS_P2;Temp;Humidity;BMP_temperature;BMP_pressure;BME280_temperature;BME280_humidity;BME280_pressure;Samples;Min_cycle;Max_cycle;Signal;HPM_P1;HPM_P2
2022/05/26 00:01:47;;;;;;;1.88;0.93;;;12.80;99.90;;;;;;4978659;28;20132;-85
2022/05/26 00:04:15;;;;;;;3.13;1.10;;;12.70;99.90;;;;;;4966433;28;20057;-82
2022/05/26 00:06:42;;;;;;;2.08;1.00;;;12.70;99.90;;;;;;4968469;28;20307;-81
2022/05/26 00:09:09;;;;;;;1.77;1.02;;;12.70;99.90;;;;;;4982247;28;20129;-83
2022/05/26 00:11:37;;;;;;;2.15;0.95;;;12.70;99.90;;;;;;4976658;28;20937;-83
2022/05/26 00:14:09;;;;;;;2.65;0.95;;;12.70;99.90;;;;;;4992400;28;20085;-83
2022/05/26 00:16:37;;;;;;;4.68;1.20;;;12.60;99.90;;;;;;4990543;28;20096;-83
2022/05/26 00:19:04;;;;;;;3.30;1.10;;;12.60;99.90;;;;;;5004773;28;20042;-82
2022/05/26 00:21:31;;;;;;;2.13;0.77;;;12.60;99.90;;;;;;4986620;28;20133;-82
2022/05/26 00:23:58;;;;;;;4.25;1.10;;;12.60;99.90;;;;;;4978560;28;20073;-82
2022/05/26 00:26:25;;;;;;;3.28;1.48;;;12.60;99.90;;;;;;4976519;28;20103;-83
2022/05/26 00:28:52;;;;;;;3.40;1.35;;;12.60;99.90;;;;;;4992188;28;20126;-83
2022/05/26 00:31:19;;;;;;;3.83;1.38;;;12.60;99.90;;;;;;4992021;28;20053;-79
2022/05/26 00:33:46;;;;;;;2.78;1.25;;;12.50;99.90;;;;;;4963103;28;20057;-82
2022/05/26 00:36:14;;;;;;;1.65;0.88;;;12.50;99.90;;;;;;4958048;28;20138;-81
2022/05/26 00:38:41;;;;;;;1.38;0.70;;;12.50;99.90;;;;;;4971001;28;20131;-82
2022/05/26 00:41:11;;;;;;;1.40;0.70;;;12.50;99.90;;;;;;5005562;28;20057;-81
2022/05/26 00:43:42;;;;;;;1.95;0.90;;;12.50;99.90;;;;;;4985901;28;20128;-81
2022/05/26 00:46:15;;;;;;;1.80;0.90;;;12.40;99.90;;;;;;4991891;28;20076;-82
2022/05/26 00:48:53;;;;;;;3.47;1.05;;;12.50;99.90;;;;;;4961569;28;20108;-82
2022/05/26 00:51:23;;;;;;;3.67;1.30;;;12.40;99.90;;;;;;4980965;28;20096;-81
2022/05/26 00:53:52;;;;;;;3.63;1.00;;;12.40;99.90;;;;;;4986654;28;20141;-80
2022/05/26 00:56:26;;;;;;;3.47;1.05;;;12.40;99.90;;;;;;4979713;28;20049;-81
2022/05/26 00:58:59;;;;;;;1.73;0.85;;;12.40;99.90;;;;;;4977450;28;20160;-80
2022/05/26 01:01:26;;;;;;;2.15;0.90;;;12.40;99.90;;;;;;4983523;28;20132;-80
2022/05/26 01:03:55;;;;;;;1.60;0.77;;;12.30;99.90;;;;;;4966293;28;20049;-80
2022/05/26 01:06:34;;;;;;;2.92;0.95;;;12.30;99.90;;;;;;4961301;28;20053;-81
2022/05/26 01:09:03;;;;;;;2.08;0.93;;;12.30;99.90;;;;;;5008671;28;20171;-82
2022/05/26 01:11:32;;;;;;;1.02;0.70;;;12.20;99.90;;;;;;4965808;28;20142;-80
2022/05/26 01:14:06;;;;;;;1.40;0.73;;;12.20;99.90;;;;;;4970590;28;20531;-81
2022/05/26 01:16:58;;;;;;;1.63;0.75;;;12.20;99.90;;;;;;4985558;28;20148;-82
2022/05/26 01:19:49;;;;;;;2.40;0.85;;;12.20;99.90;;;;;;5008678;28;20124;-81
2022/05/26 01:22:17;;;;;;;1.98;0.82;;;12.20;99.90;;;;;;5010937;28;20160;-80
2022/05/26 01:24:55;;;;;;;2.03;1.20;;;12.20;99.90;;;;;;5011146;28;20139;-79
2022/05/26 01:27:30;;;;;;;2.25;0.88;;;12.20;99.90;;;;;;5011174;28;20046;-80
2022/05/26 01:30:01;;;;;;;1.95;0.95;;;12.20;99.90;;;;;;5010441;28;20045;-80
2022/05/26 01:32:30;;;;;;;2.10;1.10;;;12.10;99.90;;;;;;5005437;23;20077;-59
2022/05/26 01:35:36;;;;;;;4.07;1.13;;;12.10;99.90;;;;;;5006228;28;20140;-59
2022/05/26 01:38:18;;;;;;;4.13;1.38;;;12.10;99.90;;;;;;5024568;28;20152;-58
2022/05/26 01:40:53;;;;;;;3.08;0.82;;;12.10;99.90;;;;;;5010964;28;20133;-59
2022/05/26 01:43:46;;;;;;;1.73;1.08;;;12.10;99.90;;;;;;4992364;28;20077;-59
2022/05/26 01:46:39;;;;;;;2.25;0.90;;;12.10;99.90;;;;;;4987914;28;20137;-58
2022/05/26 01:49:18;;;;;;;2.00;0.70;;;12.00;99.90;;;;;;4982850;28;20052;-59
2022/05/26 01:52:07;;;;;;;1.48;1.10;;;12.00;99.90;;;;;;5010471;28;20139;-58
2022/05/26 01:54:59;;;;;;;2.63;0.80;;;12.00;99.90;;;;;;5007670;28;20189;-59
2022/05/26 01:57:38;;;;;;;1.70;0.70;;;12.00;99.90;;;;;;4992943;28;20081;-58
2022/05/26 02:00:08;;;;;;;1.90;0.95;;;12.00;99.90;;;;;;4994203;28;20153;-59
2022/05/26 02:02:40;;;;;;;2.40;1.00;;;11.90;99.90;;;;;;4993598;28;20085;-59
2022/05/26 02:05:13;;;;;;;2.92;0.80;;;11.90;99.90;;;;;;4993324;28;20109;-58
2022/05/26 02:07:51;;;;;;;1.08;0.60;;;11.90;99.90;;;;;;4998302;28;20133;-58
2022/05/26 02:10:23;;;;;;;1.13;0.60;;;11.80;99.90;;;;;;5006488;28;20077;-58
2022/05/26 02:12:59;;;;;;;1.52;0.70;;;11.80;99.90;;;;;;4988281;28;20135;-58
2022/05/26 02:15:37;;;;;;;1.67;0.70;;;11.80;99.90;;;;;;4992959;28;20073;-58
2022/05/26 02:18:28;;;;;;;3.13;0.95;;;11.80;99.90;;;;;;4992631;28;20049;-57
2022/05/26 02:21:01;;;;;;;0.80;0.52;;;11.80;99.90;;;;;;5007164;28;20125;-58
2022/05/26 02:23:50;;;;;;;1.20;0.60;;;11.80;99.90;;;;;;5000660;28;20073;-57
2022/05/26 02:26:17;;;;;;;1.52;0.82;;;11.70;99.90;;;;;;4990741;28;20081;-57
2022/05/26 02:31:29;;;;;;;1.70;0.80;;;11.70;99.90;;;;;;5011301;28;20081;-58
2022/05/26 02:33:59;;;;;;;2.10;0.93;;;11.70;99.90;;;;;;5007496;28;20042;-58
2022/05/26 02:36:28;;;;;;;1.38;0.63;;;11.70;99.90;;;;;;4979657;28;20084;-57
2022/05/26 02:38:55;;;;;;;2.55;1.02;;;11.70;99.90;;;;;;5004571;28;20120;-57
2022/05/26 02:41:23;;;;;;;0.98;0.60;;;11.60;99.90;;;;;;5007033;28;20542;-58
2022/05/26 02:43:50;;;;;;;1.63;0.63;;;11.60;99.90;;;;;;4998090;28;20120;-58
2022/05/26 02:46:44;;;;;;;1.70;0.63;;;11.60;99.90;;;;;;5024730;28;20055;-57
2022/05/26 02:49:30;;;;;;;2.90;0.95;;;11.60;99.90;;;;;;4992403;28;20064;-57
2022/05/26 02:52:25;;;;;;;3.03;1.10;;;11.60;99.90;;;;;;5021698;28;20133;-57
2022/05/26 02:55:07;;;;;;;2.25;1.00;;;11.70;99.90;;;;;;5025474;28;20205;-58
2022/05/26 02:57:44;;;;;;;1.27;0.90;;;11.60;99.90;;;;;;5007951;28;21117;-57
2022/05/26 03:00:15;;;;;;;1.52;0.90;;;11.60;99.90;;;;;;5024367;28;20056;-58
2022/05/26 03:02:58;;;;;;;2.65;1.30;;;11.60;99.90;;;;;;4991887;28;20128;-56
2022/05/26 03:05:36;;;;;;;1.92;1.00;;;11.60;99.90;;;;;;5005746;28;20128;-58
2022/05/26 03:08:05;;;;;;;3.78;1.08;;;11.60;99.90;;;;;;4991186;28;20103;-58
2022/05/26 03:10:32;;;;;;;1.10;0.65;;;11.60;99.90;;;;;;5007181;28;20456;-57
2022/05/26 03:13:00;;;;;;;3.50;1.13;;;11.60;99.90;;;;;;4991560;28;20057;-58
2022/05/26 03:15:28;;;;;;;2.65;0.82;;;11.60;99.90;;;;;;5005719;28;20081;-58
2022/05/26 03:17:54;;;;;;;4.13;1.45;;;11.60;99.90;;;;;;5005708;28;20125;-57
2022/05/26 03:20:21;;;;;;;4.07;1.35;;;11.60;99.90;;;;;;5005442;28;20128;-58
2022/05/26 03:22:48;;;;;;;2.53;1.05;;;11.60;99.90;;;;;;5009527;28;20152;-57
2022/05/26 03:25:15;;;;;;;1.73;1.08;;;11.60;99.90;;;;;;5006802;28;20089;-58
2022/05/26 03:27:41;;;;;;;1.77;0.73;;;11.60;99.90;;;;;;5009976;28;20120;-56
2022/05/26 03:30:08;;;;;;;1.70;0.90;;;11.50;99.90;;;;;;5010566;28;20509;-57
2022/05/26 03:32:35;;;;;;;1.15;0.80;;;11.60;99.90;;;;;;5022588;28;20432;-58
2022/05/26 03:43:41;;;;;;;3.83;1.42;;;11.50;99.90;;;;;;4951080;28;20697;-57
2022/05/26 03:46:08;;;;;;;1.52;0.60;;;11.50;99.90;;;;;;4943657;28;20165;-57
2022/05/26 03:48:36;;;;;;;2.17;0.90;;;11.50;99.90;;;;;;4977342;28;20045;-57
2022/05/26 03:51:02;;;;;;;1.88;0.90;;;11.50;99.90;;;;;;5007629;28;20132;-58
2022/05/26 03:53:29;;;;;;;3.67;0.98;;;11.50;99.90;;;;;;5010890;28;20164;-57
2022/05/26 03:55:56;;;;;;;2.05;1.05;;;11.50;99.90;;;;;;5010181;28;20522;-57
2022/05/26 03:58:23;;;;;;;3.03;0.90;;;11.50;99.90;;;;;;5010236;28;20133;-57
2022/05/26 04:00:50;;;;;;;2.97;0.90;;;11.50;99.90;;;;;;5007802;28;20129;-57
2022/05/26 04:03:17;;;;;;;4.70;1.80;;;11.50;99.90;;;;;;5016016;28;20045;-58
2022/05/26 04:05:44;;;;;;;2.72;1.10;;;11.50;99.90;;;;;;5010929;28;20082;-57
2022/05/26 04:08:11;;;;;;;3.15;1.00;;;11.50;99.90;;;;;;5005596;28;20336;-57
2022/05/26 04:10:38;;;;;;;3.55;1.00;;;11.50;99.90;;;;;;5005487;28;20655;-58
2022/05/26 04:13:04;;;;;;;1.98;1.20;;;11.50;99.90;;;;;;5007809;28;20069;-57
2022/05/26 04:15:31;;;;;;;2.08;1.00;;;11.50;99.90;;;;;;5012197;28;20061;-58
2022/05/26 04:17:58;;;;;;;1.75;0.95;;;11.50;99.90;;;;;;5013569;28;20081;-58
2022/05/26 04:20:25;;;;;;;1.75;0.80;;;11.50;99.90;;;;;;5018472;28;20140;-57
2022/05/26 04:22:51;;;;;;;0.90;0.60;;;11.50;99.90;;;;;;5004551;28;20633;-58
2022/05/26 04:25:20;;;;;;;2.33;0.85;;;11.50;99.90;;;;;;4990736;28;20089;-57
2022/05/26 04:27:46;;;;;;;2.35;0.60;;;11.50;99.90;;;;;;5018002;28;20053;-57
2022/05/26 04:30:14;;;;;;;1.40;0.63;;;11.50;99.90;;;;;;5018083;28;20514;-57
2022/05/26 04:32:40;;;;;;;2.42;0.95;;;11.50;99.90;;;;;;5027211;28;20099;-57
2022/05/26 04:35:09;;;;;;;2.75;1.00;;;11.50;99.90;;;;;;5013289;28;20045;-57
2022/05/26 04:37:36;;;;;;;2.28;0.88;;;11.60;99.90;;;;;;5019754;28;20057;-58
2022/05/26 04:40:03;;;;;;;3.28;1.02;;;11.60;99.90;;;;;;5016873;28;20072;-57
2022/05/26 04:42:30;;;;;;;3.10;0.90;;;11.70;99.90;;;;;;5014625;28;20096;-57
2022/05/26 04:44:56;;;;;;;3.90;1.00;;;11.70;99.90;;;;;;5021020;28;20161;-57
2022/05/26 04:47:23;;;;;;;2.50;1.00;;;11.70;99.90;;;;;;5010730;28;20477;-57
2022/05/26 04:49:50;;;;;;;2.15;1.27;;;11.70;99.90;;;;;;5007490;28;20045;-57
2022/05/26 04:52:19;;;;;;;2.17;0.75;;;11.80;99.90;;;;;;5024760;28;20045;-57
2022/05/26 04:54:45;;;;;;;3.40;1.70;;;11.80;99.90;;;;;;5017328;28;20068;-57
2022/05/26 04:57:13;;;;;;;2.72;1.00;;;11.90;99.90;;;;;;5006665;28;20049;-58
2022/05/26 04:59:40;;;;;;;3.63;1.70;;;11.90;99.90;;;;;;5018655;28;20132;-58
2022/05/26 05:02:11;;;;;;;3.38;1.23;;;11.90;99.90;;;;;;5018505;28;20468;-59
2022/05/26 05:04:38;;;;;;;3.55;1.63;;;12.00;99.90;;;;;;4996722;28;20535;-59
2022/05/26 05:07:05;;;;;;;1.67;1.02;;;12.00;99.90;;;;;;4993680;28;20053;-57
2022/05/26 05:09:32;;;;;;;3.20;1.35;;;12.10;99.90;;;;;;5013558;28;20188;-59
2022/05/26 05:11:59;;;;;;;3.13;1.30;;;12.10;99.90;;;;;;5012593;28;20157;-59
2022/05/26 05:14:25;;;;;;;3.97;1.45;;;12.20;99.90;;;;;;5014307;28;20079;-59
2022/05/26 05:16:52;;;;;;;3.53;1.20;;;12.20;99.90;;;;;;5012462;28;20080;-59
2022/05/26 05:19:19;;;;;;;3.33;1.50;;;12.30;99.90;;;;;;5016336;28;20132;-58
2022/05/26 05:22:19;;;;;;;1.63;0.98;;;12.40;99.90;;;;;;5000774;28;20476;-58
2022/05/26 05:24:47;;;;;;;3.13;1.20;;;12.50;99.90;;;;;;5012880;28;20037;-58
2022/05/26 05:27:46;;;;;;;3.17;1.23;;;12.50;99.90;;;;;;5004109;28;20041;-58
2022/05/26 05:30:16;;;;;;;2.55;1.13;;;12.60;99.90;;;;;;4999197;28;20081;-58
2022/05/26 05:32:55;;;;;;;3.67;1.63;;;12.70;99.90;;;;;;5000717;28;20172;-58
2022/05/26 05:35:26;;;;;;;4.10;1.30;;;12.70;99.90;;;;;;5018954;28;20077;-59
2022/05/26 05:37:53;;;;;;;2.40;1.42;;;12.80;99.90;;;;;;5007208;28;20129;-58
2022/05/26 05:40:20;;;;;;;2.92;1.38;;;12.90;99.90;;;;;;5003462;28;20080;-58
2022/05/26 05:42:47;;;;;;;3.65;1.20;;;13.00;99.90;;;;;;5004246;28;20076;-58
2022/05/26 05:45:14;;;;;;;4.00;1.45;;;13.00;99.90;;;;;;5019326;28;20088;-58
2022/05/26 05:47:41;;;;;;;3.47;1.55;;;13.10;99.90;;;;;;5012792;28;20204;-58
2022/05/26 05:50:08;;;;;;;2.55;1.23;;;13.20;99.90;;;;;;5014356;28;20168;-58
2022/05/26 05:52:36;;;;;;;2.10;1.13;;;13.30;99.90;;;;;;5013865;28;20053;-59
2022/05/26 05:55:04;;;;;;;4.65;1.63;;;13.40;99.90;;;;;;4990698;28;20152;-58
2022/05/26 05:57:35;;;;;;;5.85;2.05;;;13.50;99.90;;;;;;5020169;28;20046;-58
2022/05/26 06:00:03;;;;;;;4.57;1.45;;;13.60;99.90;;;;;;5017403;28;20424;-58
2022/05/26 06:02:31;;;;;;;5.00;1.60;;;13.60;99.90;;;;;;5005343;28;20096;-59
2022/05/26 06:05:00;;;;;;;5.55;1.58;;;13.70;99.90;;;;;;5014176;28;20049;-59
2022/05/26 06:07:27;;;;;;;2.92;1.13;;;13.80;99.90;;;;;;5016992;28;20107;-59
2022/05/26 06:09:54;;;;;;;4.47;1.23;;;13.80;99.90;;;;;;5015157;28;20063;-58
2022/05/26 06:12:21;;;;;;;4.43;1.65;;;13.90;99.90;;;;;;4998279;28;20056;-58
2022/05/26 06:14:49;;;;;;;4.57;1.27;;;14.00;99.90;;;;;;5010889;28;20204;-59
2022/05/26 06:17:15;;;;;;;4.15;1.50;;;14.10;99.90;;;;;;5013275;28;20045;-58
2022/05/26 06:19:42;;;;;;;2.95;1.13;;;14.10;99.90;;;;;;5011358;28;20081;-58
2022/05/26 06:22:16;;;;;;;3.33;1.20;;;14.20;99.90;;;;;;5002090;28;20525;-58
2022/05/26 06:24:43;;;;;;;2.65;1.10;;;14.30;99.90;;;;;;5018721;28;20134;-58
2022/05/26 06:29:57;;;;;;;2.20;0.95;;;14.40;99.90;;;;;;5009432;28;20051;-58
2022/05/26 06:37:55;;;;;;;3.40;1.40;;;14.50;99.90;;;;;;5006693;28;20566;-58
2022/05/26 06:40:22;;;;;;;5.45;2.08;;;14.50;99.90;;;;;;5008405;28;20044;-58
2022/05/26 06:42:49;;;;;;;4.07;1.88;;;14.60;99.90;;;;;;5007631;28;20514;-58
2022/05/26 06:45:18;;;;;;;4.95;1.58;;;14.60;99.90;;;;;;5015021;28;20622;-58
2022/05/26 06:47:44;;;;;;;3.22;1.23;;;14.70;99.90;;;;;;5013265;28;20073;-58
2022/05/26 06:50:11;;;;;;;4.18;1.30;;;14.70;99.90;;;;;;5013874;28;20136;-58
2022/05/26 06:52:42;;;;;;;3.83;1.40;;;14.80;99.90;;;;;;5019017;28;20057;-58
2022/05/26 06:55:09;;;;;;;3.78;1.67;;;14.80;99.90;;;;;;5019450;28;20225;-58
2022/05/26 06:57:35;;;;;;;3.22;1.17;;;14.90;99.90;;;;;;5019465;28;20168;-58
2022/05/26 07:00:05;;;;;;;2.53;1.33;;;15.10;99.90;;;;;;5018787;28;20132;-58
2022/05/26 07:02:31;;;;;;;4.35;1.30;;;15.20;99.90;;;;;;5019608;28;20073;-59
2022/05/26 07:04:58;;;;;;;2.90;1.30;;;15.30;99.90;;;;;;5018234;28;20049;-59
2022/05/26 07:07:26;;;;;;;2.65;1.30;;;15.20;99.90;;;;;;5018521;28;20049;-58
2022/05/26 07:09:56;;;;;;;5.03;2.08;;;15.20;99.90;;;;;;5019286;28;20085;-57
2022/05/26 07:12:23;;;;;;;3.15;1.20;;;15.20;99.90;;;;;;5019434;28;20085;-57
2022/05/26 07:14:50;;;;;;;2.50;1.30;;;15.20;99.90;;;;;;5019465;28;20073;-57
2022/05/26 07:17:17;;;;;;;3.03;1.40;;;15.30;99.90;;;;;;5013494;28;20136;-58
2022/05/26 07:19:44;;;;;;;3.25;1.20;;;15.30;99.90;;;;;;5009676;28;20081;-57
2022/05/26 07:22:11;;;;;;;3.55;1.27;;;15.30;99.90;;;;;;5021606;28;20057;-58
2022/05/26 07:24:38;;;;;;;2.97;1.20;;;15.50;99.90;;;;;;5012671;28;20138;-59
2022/05/26 07:27:05;;;;;;;1.85;0.93;;;15.50;99.90;;;;;;5022740;28;20077;-58
2022/05/26 07:29:31;;;;;;;3.10;1.30;;;15.50;99.90;;;;;;5030007;28;20108;-58
2022/05/26 07:31:59;;;;;;;4.05;1.42;;;15.60;99.90;;;;;;5018433;28;20068;-59
2022/05/26 07:34:26;;;;;;;2.83;1.23;;;15.70;99.90;;;;;;5013113;28;20084;-59
2022/05/26 07:42:25;;;;;;;2.15;1.20;;;15.80;99.90;;;;;;5017379;28;20549;-59
2022/05/26 07:44:54;;;;;;;5.07;1.60;;;15.80;99.90;;;;;;5018652;28;20052;-57
2022/05/26 07:47:22;;;;;;;2.67;1.08;;;15.70;99.90;;;;;;4992837;28;20054;-58
2022/05/26 07:49:49;;;;;;;2.90;1.30;;;15.80;99.90;;;;;;5019789;28;20050;-57
2022/05/26 07:52:18;;;;;;;4.47;1.35;;;15.80;99.90;;;;;;5017455;28;20128;-58
2022/05/26 07:54:44;;;;;;;2.55;1.38;;;15.90;99.90;;;;;;5018834;28;20089;-58
2022/05/26 07:57:25;;;;;;;3.05;1.00;;;16.10;99.90;;;;;;5008736;28;20137;-58
2022/05/26 07:59:52;;;;;;;2.20;1.15;;;16.20;99.90;;;;;;4994941;28;20132;-57
2022/05/26 08:02:20;;;;;;;3.55;1.20;;;16.20;99.90;;;;;;5020386;28;21277;-58
2022/05/26 08:04:47;;;;;;;2.28;0.98;;;16.40;99.90;;;;;;5020915;28;20493;-57
2022/05/26 08:07:13;;;;;;;1.77;0.82;;;16.60;99.90;;;;;;5019447;28;20057;-58
2022/05/26 08:09:40;;;;;;;1.92;0.82;;;16.70;99.90;;;;;;5021102;28;20132;-58
2022/05/26 08:12:09;;;;;;;4.78;1.48;;;16.80;99.90;;;;;;5019382;28;20046;-58
2022/05/26 08:14:35;;;;;;;3.30;1.02;;;16.80;99.90;;;;;;5022624;28;20127;-58
2022/05/26 08:17:02;;;;;;;1.92;0.82;;;16.80;99.90;;;;;;5012302;28;20632;-58
2022/05/26 08:19:29;;;;;;;2.63;1.13;;;16.90;99.90;;;;;;5018128;28;20056;-58
2022/05/26 08:21:56;;;;;;;2.78;1.10;;;17.00;99.90;;;;;;5019589;28;20128;-58
2022/05/26 08:24:24;;;;;;;4.28;1.52;;;17.00;99.90;;;;;;5015782;28;20726;-58
2022/05/26 08:26:51;;;;;;;3.03;1.20;;;16.90;99.90;;;;;;5021647;28;20847;-58
2022/05/26 08:29:18;;;;;;;2.78;1.20;;;16.90;99.90;;;;;;5012610;28;20153;-57
2022/05/26 08:31:45;;;;;;;1.98;1.00;;;16.90;99.90;;;;;;4992546;28;20216;-57
2022/05/26 08:34:12;;;;;;;1.80;0.80;;;16.90;99.90;;;;;;5013331;28;20101;-57
2022/05/26 08:36:39;;;;;;;2.45;1.00;;;17.00;99.90;;;;;;5015175;28;20045;-58
2022/05/26 08:39:06;;;;;;;4.55;1.23;;;17.00;99.90;;;;;;5017386;28;20103;-58
2022/05/26 08:41:35;;;;;;;3.88;1.25;;;17.00;99.90;;;;;;5018420;28;20492;-58
2022/05/26 08:44:08;;;;;;;1.95;0.98;;;16.90;99.90;;;;;;5002704;28;20141;-58
2022/05/26 08:46:50;;;;;;;3.08;1.38;;;16.90;99.90;;;;;;4991968;28;20144;-58
2022/05/26 08:49:46;;;;;;;3.47;0.95;;;17.00;99.90;;;;;;5020343;28;20053;-59
2022/05/26 08:52:16;;;;;;;2.30;1.05;;;17.10;99.90;;;;;;4989661;28;20060;-58
2022/05/26 08:54:50;;;;;;;3.30;1.00;;;17.00;99.90;;;;;;5002958;28;20062;-58
2022/05/26 08:57:28;;;;;;;2.53;1.02;;;17.00;99.90;;;;;;5004300;28;20049;-58
2022/05/26 08:59:55;;;;;;;2.63;1.08;;;17.10;99.90;;;;;;5016254;28;20049;-58
2022/05/26 09:02:28;;;;;;;2.00;0.80;;;17.20;99.90;;;;;;5020827;28;20078;-58
2022/05/26 09:04:56;;;;;;;;;;;17.30;99.90;;;;;;5014300;28;20115;-58
2022/05/26 09:13:05;;;;;;;2.55;0.98;;;17.60;99.90;;;;;;5001049;28;20057;-58
2022/05/26 09:15:33;;;;;;;2.20;0.73;;;17.70;99.90;;;;;;5011611;28;20798;-58
2022/05/26 09:18:14;;;;;;;2.63;1.00;;;17.80;99.90;;;;;;5016892;28;20073;-57
2022/05/26 09:20:41;;;;;;;1.73;1.00;;;17.80;99.90;;;;;;5007701;28;20220;-57
2022/05/26 09:23:12;;;;;;;1.90;1.00;;;18.00;99.90;;;;;;5011902;28;20457;-58
2022/05/26 09:26:03;;;;;;;2.78;1.00;;;18.00;99.90;;;;;;5018300;28;20064;-57
2022/05/26 09:28:48;;;;;;;2.88;1.42;;;17.90;99.90;;;;;;5006767;28;20537;-58
2022/05/26 09:31:21;;;;;;;3.50;1.20;;;17.90;99.90;;;;;;5019791;28;20140;-59
2022/05/26 09:34:09;;;;;;;4.10;1.27;;;18.00;99.90;;;;;;5017785;28;21349;-59
2022/05/26 09:37:03;;;;;;;1.92;0.80;;;18.10;99.90;;;;;;5005047;28;20080;-58
2022/05/26 09:39:34;;;;;;;1.70;0.88;;;18.20;99.90;;;;;;5020039;28;20046;-60
2022/05/26 09:42:03;;;;;;;1.88;0.65;;;18.40;99.90;;;;;;5013996;28;20096;-58
2022/05/26 09:45:06;;;;;;;1.77;0.85;;;18.30;99.90;;;;;;4998899;28;20142;-57
2022/05/26 09:47:37;;;;;;;2.00;0.77;;;18.20;99.90;;;;;;4996605;28;20056;-58
2022/05/26 09:50:07;;;;;;;0.90;0.63;;;18.20;99.90;;;;;;4983448;28;20135;-58
2022/05/26 09:52:42;;;;;;;1.15;0.68;;;18.40;99.90;;;;;;4997852;28;20249;-58
2022/05/26 09:55:27;;;;;;;1.25;0.57;;;18.50;99.90;;;;;;5002323;28;20172;-58
2022/05/26 09:58:09;;;;;;;2.03;0.93;;;18.50;99.90;;;;;;5006016;28;20054;-58
2022/05/26 10:00:46;;;;;;;2.38;0.63;;;18.60;99.90;;;;;;5013406;28;20140;-58
2022/05/26 10:03:37;;;;;;;1.38;0.80;;;18.90;99.90;;;;;;5013386;28;20148;-58
2022/05/26 10:06:20;;;;;;;1.50;0.70;;;19.10;99.90;;;;;;5020529;28;20190;-58
2022/05/26 10:08:47;;;;;;;;;;;19.20;99.90;;;;;;5021283;28;20181;-58
2022/05/26 10:11:22;;;;;;;3.17;1.02;;;18.90;99.90;;;;;;5006880;28;19945;-58
2022/05/26 10:14:01;;;;;;;2.22;0.70;;;18.70;99.90;;;;;;5017761;28;20046;-58
2022/05/26 10:16:43;;;;;;;2.92;1.40;;;18.60;99.90;;;;;;5019772;28;20053;-58
2022/05/26 10:19:29;;;;;;;1.73;0.80;;;18.50;99.90;;;;;;5020260;28;20049;-57
2022/05/26 10:22:18;;;;;;;1.25;0.60;;;18.50;99.90;;;;;;5000982;28;20053;-58
2022/05/26 10:24:54;;;;;;;1.35;0.50;;;18.60;99.90;;;;;;5009416;28;20539;-58
2022/05/26 10:27:40;;;;;;;1.88;0.90;;;18.60;99.90;;;;;;4985834;28;20436;-57
2022/05/26 10:30:30;;;;;;;3.08;1.08;;;18.50;99.90;;;;;;5008734;28;20104;-58
2022/05/26 10:33:19;;;;;;;2.00;0.77;;;18.40;99.90;;;;;;5004449;28;20065;-57
2022/05/26 10:36:27;;;;;;;2.85;1.00;;;18.20;99.90;;;;;;4996914;28;20045;-59
2022/05/26 10:39:39;;;;;;;2.22;0.80;;;18.10;99.90;;;;;;4946685;28;20129;-57
2022/05/26 10:42:09;;;;;;;2.00;0.73;;;18.20;99.90;;;;;;4989824;28;21029;-57
2022/05/26 10:44:40;;;;;;;2.20;0.90;;;18.20;99.90;;;;;;4993808;28;20135;-57
2022/05/26 10:47:21;;;;;;;3.78;1.20;;;18.40;99.90;;;;;;5101521;27;20114;-60
2022/05/26 10:49:53;;;;;;;3.70;1.05;;;18.60;99.90;;;;;;5086614;28;20139;-59
2022/05/26 10:52:44;;;;;;;2.70;0.70;;;18.80;99.90;;;;;;5075422;28;20430;-57
2022/05/26 10:55:18;;;;;;;1.02;0.70;;;19.00;99.90;;;;;;5070321;28;20525;-60
2022/05/26 10:57:55;;;;;;;2.08;1.02;;;19.20;99.90;;;;;;5090441;28;20102;-58
2022/05/26 11:00:24;;;;;;;2.97;0.90;;;19.20;99.90;;;;;;5068440;28;20168;-58
2022/05/26 11:03:09;;;;;;;1.48;0.68;;;19.10;99.90;;;;;;5070225;28;20132;-58
2022/05/26 11:05:45;;;;;;;2.15;0.82;;;19.20;99.90;;;;;;5073294;28;20048;-58
2022/05/26 11:08:14;;;;;;;1.58;0.98;;;19.40;99.90;;;;;;5073961;28;20044;-58
2022/05/26 11:10:59;;;;;;;1.70;0.75;;;19.40;99.90;;;;;;5066937;28;20191;-58
2022/05/26 11:17:21;;;;;;;1.27;0.60;;;19.50;99.90;;;;;;5070867;28;20124;-58
2022/05/26 11:20:07;;;;;;;2.05;0.65;;;19.90;99.90;;;;;;5065776;28;20056;-58
2022/05/26 11:22:34;;;;;;;1.70;0.60;;;19.90;99.90;;;;;;5056799;28;20143;-58
2022/05/26 11:25:01;;;;;;;1.73;0.68;;;19.90;99.90;;;;;;5070652;28;20051;-57
2022/05/26 11:27:45;;;;;;;2.10;0.95;;;20.00;99.90;;;;;;5076109;28;20686;-58
2022/05/26 11:36:41;;;;;;;1.42;0.82;;;19.90;99.90;;;;;;5073431;28;20049;-58
2022/05/26 11:39:21;;;;;;;1.58;0.70;;;19.80;99.90;;;;;;5083750;28;20139;-58
2022/05/26 11:41:47;;;;;;;1.42;0.77;;;19.90;99.90;;;;;;5075418;28;20716;-58
2022/05/26 11:44:16;;;;;;;1.40;0.45;;;19.90;99.90;;;;;;5071722;28;20110;-58
2022/05/26 11:46:48;;;;;;;0.95;0.52;;;20.00;99.90;;;;;;5077079;28;20147;-58
2022/05/26 11:49:43;;;;;;;0.88;0.60;;;20.00;99.90;;;;;;5075236;28;20052;-58
2022/05/26 11:52:34;;;;;;;2.10;0.70;;;20.30;99.90;;;;;;5051260;28;20672;-58
2022/05/26 11:55:06;;;;;;;1.60;0.70;;;20.40;99.90;;;;;;5067039;28;20041;-58
2022/05/26 11:57:36;;;;;;;1.17;0.47;;;20.60;99.90;;;;;;5050077;28;20460;-58
2022/05/26 12:00:18;;;;;;;1.73;0.90;;;20.50;99.90;;;;;;5076465;28;20056;-58
2022/05/26 12:03:20;;;;;;;1.58;0.60;;;20.50;99.90;;;;;;5061786;28;20368;-58
2022/05/26 12:05:54;;;;;;;2.85;0.80;;;20.50;99.90;;;;;;5060870;28;20071;-58
2022/05/26 12:08:30;;;;;;;1.92;0.60;;;20.50;99.90;;;;;;5060242;28;20712;-58
2022/05/26 12:11:00;;;;;;;1.45;0.50;;;20.50;99.90;;;;;;5058885;28;20063;-58
2022/05/26 12:13:32;;;;;;;1.25;0.60;;;20.60;99.90;;;;;;5057913;28;20088;-58
2022/05/26 12:16:09;;;;;;;1.05;0.50;;;20.60;99.90;;;;;;5039606;28;20444;-57
2022/05/26 12:19:04;;;;;;;1.88;0.75;;;20.70;99.90;;;;;;5040826;28;20535;-58
2022/05/26 12:21:43;;;;;;;1.77;0.50;;;20.80;99.90;;;;;;5055166;28;20159;-59
2022/05/26 12:24:31;;;;;;;0.70;0.45;;;20.80;99.90;;;;;;5059965;28;20915;-59
2022/05/26 12:27:01;;;;;;;1.33;0.40;;;21.00;99.90;;;;;;5060110;28;20801;-58
2022/05/26 12:29:47;;;;;;;1.88;0.77;;;20.90;99.90;;;;;;5059970;28;20124;-58
2022/05/26 12:32:23;;;;;;;1.42;0.68;;;20.80;99.90;;;;;;5062094;28;20167;-58
2022/05/26 12:35:32;;;;;;;0.25;0.25;;;20.90;99.90;;;;;;5072096;28;20047;-58
2022/05/26 12:38:26;;;;;;;0.98;0.65;;;21.00;99.90;;;;;;5069971;28;20080;-58
2022/05/26 12:40:55;;;;;;;0.73;0.55;;;21.30;99.90;;;;;;5058883;28;20140;-58
2022/05/26 12:43:45;;;;;;;1.15;0.43;;;21.30;99.90;;;;;;5062032;28;20129;-58
2022/05/26 12:46:35;;;;;;;0.93;0.40;;;21.30;99.90;;;;;;5063186;28;20052;-58
2022/05/26 12:49:23;;;;;;;1.25;0.60;;;21.10;99.90;;;;;;5063531;28;20048;-58
2022/05/26 12:52:16;;;;;;;1.02;0.57;;;20.70;99.90;;;;;;5062202;28;20092;-58
2022/05/26 12:55:11;;;;;;;2.33;0.75;;;20.50;99.90;;;;;;5062176;28;20142;-57
2022/05/26 12:57:40;;;;;;;1.00;0.50;;;20.30;99.90;;;;;;5055476;28;20052;-58
2022/05/26 13:00:36;;;;;;;0.85;0.40;;;20.40;99.90;;;;;;5061961;28;20131;-57
2022/05/26 13:03:06;;;;;;;2.20;0.80;;;20.60;99.90;;;;;;5063411;28;20124;-58
2022/05/26 13:05:35;;;;;;;1.38;0.73;;;20.50;99.90;;;;;;5060271;28;20091;-58
2022/05/26 13:08:02;;;;;;;1.75;0.80;;;20.50;99.90;;;;;;5061097;28;20525;-58
2022/05/26 13:10:37;;;;;;;2.10;0.65;;;20.40;99.90;;;;;;5060827;28;20097;-58
2022/05/26 13:13:17;;;;;;;1.90;0.77;;;20.30;99.90;;;;;;5061934;28;20162;-57
2022/05/26 13:15:46;;;;;;;1.13;0.40;;;20.30;99.90;;;;;;5063096;28;20418;-58
2022/05/26 13:18:21;;;;;;;0.77;0.60;;;20.60;99.90;;;;;;5061796;28;20049;-58
2022/05/26 13:20:48;;;;;;;0.95;0.40;;;21.10;99.90;;;;;;5062762;28;20554;-58
2022/05/26 13:23:29;;;;;;;0.80;0.32;;;21.40;99.90;;;;;;5061384;28;20056;-58
2022/05/26 13:25:57;;;;;;;1.30;0.70;;;21.30;99.90;;;;;;5062888;28;20147;-58
2022/05/26 13:28:31;;;;;;;1.58;0.65;;;21.30;99.90;;;;;;5061594;28;20380;-58
2022/05/26 13:34:04;;;;;;;0.90;0.40;;;21.30;99.90;;;;;;5062677;28;20080;-58
2022/05/26 13:36:33;;;;;;;1.33;0.50;;;21.60;99.90;;;;;;5060671;28;20136;-58
2022/05/26 13:39:20;;;;;;;1.48;0.82;;;21.50;99.90;;;;;;5062353;28;20063;-58
2022/05/26 13:41:48;;;;;;;1.23;0.60;;;21.70;99.90;;;;;;5062188;28;20497;-58
2022/05/26 13:44:22;;;;;;;1.00;0.63;;;21.90;99.90;;;;;;5060714;28;20072;-58
2022/05/26 13:46:50;;;;;;;1.05;0.60;;;22.30;99.90;;;;;;5060211;28;20159;-58
2022/05/26 13:49:25;;;;;;;2.20;0.85;;;22.70;99.90;;;;;;5060448;28;20114;-58
2022/05/26 13:51:53;;;;;;;1.25;0.63;;;23.10;99.90;;;;;;5059534;28;20075;-58
2022/05/26 13:54:46;;;;;;;1.05;0.63;;;23.20;99.90;;;;;;5061937;28;20076;-58
2022/05/26 13:57:17;;;;;;;1.52;0.70;;;23.40;99.90;;;;;;5044905;28;20048;-58
2022/05/26 13:59:50;;;;;;;0.77;0.50;;;22.80;99.90;;;;;;5060510;28;20189;-58
2022/05/26 14:02:23;;;;;;;1.60;0.70;;;22.10;99.90;;;;;;5060702;28;20080;-58
2022/05/26 14:05:19;;;;;;;1.02;0.57;;;21.80;99.90;;;;;;5061641;28;20051;-58